Time;durP1;ratioP1;P1;durP2;ratioP2;P2;SDS_P1;SDS_P2;PMS_P1;PMS_P2;Temp;Humidity;BMP_temperature;BMP_pressure;BME280_temperature;BME280_humidity;BME280_pressure;Samples;Min_cycle;Max_cycle;Signal;HPM_P1;HPM_P2
2023/09/16 00:00:38;;;;;;;3.35;2.03;;;18.60;1.00;;;;;;5134991;27;20410;-58
2023/09/16 00:03:05;;;;;;;3.20;2.13;;;18.60;1.00;;;;;;5133655;27;20420;-59
2023/09/16 00:05:34;;;;;;;3.33;2.40;;;18.60;1.00;;;;;;5133213;27;20406;-59
2023/09/16 00:08:01;;;;;;;4.33;2.27;;;18.60;1.00;;;;;;5129888;27;20410;-59
2023/09/16 00:10:28;;;;;;;3.30;2.10;;;18.60;1.00;;;;;;5120332;27;20505;-60
2023/09/16 00:12:55;;;;;;;4.70;2.53;;;18.60;1.00;;;;;;5133656;27;20421;-59
2023/09/16 00:15:23;;;;;;;4.70;2.58;;;18.60;1.00;;;;;;5134886;27;20427;-59
2023/09/16 00:17:50;;;;;;;4.80;2.78;;;18.60;1.00;;;;;;5135074;28;20524;-59
2023/09/16 00:20:17;;;;;;;3.88;2.55;;;18.60;1.00;;;;;;5135065;28;20422;-59
2023/09/16 00:22:47;;;;;;;4.07;2.50;;;18.50;1.00;;;;;;5134227;28;20414;-59
2023/09/16 00:25:14;;;;;;;4.15;2.38;;;18.50;1.00;;;;;;5133387;28;20493;-58
2023/09/16 00:27:41;;;;;;;3.80;2.88;;;18.40;1.00;;;;;;5134465;28;20427;-58
2023/09/16 00:30:09;;;;;;;4.23;2.40;;;18.30;1.00;;;;;;5135286;28;20418;-58
2023/09/16 00:32:36;;;;;;;4.50;2.70;;;18.30;1.00;;;;;;5135126;28;20429;-57
2023/09/16 00:35:04;;;;;;;4.37;3.10;;;18.20;1.00;;;;;;5134879;28;20426;-59
2023/09/16 00:37:31;;;;;;;3.92;2.63;;;18.10;4.70;;;;;;5135728;28;20418;-60
2023/09/16 00:40:00;;;;;;;3.70;2.20;;;18.10;9.40;;;;;;5135756;28;20833;-60
2023/09/16 00:42:27;;;;;;;4.10;2.95;;;18.00;17.20;;;;;;5135446;28;20418;-60
2023/09/16 00:44:54;;;;;;;5.38;2.60;;;17.90;27.90;;;;;;5134888;28;20422;-58
2023/09/16 00:47:21;;;;;;;4.47;3.10;;;17.80;41.50;;;;;;5137380;27;20418;-57
2023/09/16 00:49:49;;;;;;;3.15;2.53;;;17.70;55.40;;;;;;5139058;27;20422;-59
2023/09/16 00:52:16;;;;;;;4.20;3.10;;;17.70;65.50;;;;;;5139097;27;20418;-60
2023/09/16 00:54:44;;;;;;;4.00;2.85;;;17.60;78.00;;;;;;5138946;27;20456;-60
2023/09/16 00:57:15;;;;;;;3.30;2.10;;;17.70;73.60;;;;;;5122455;27;20873;-59
2023/09/16 00:59:42;;;;;;;2.80;2.10;;;17.70;63.10;;;;;;5119304;28;20520;-60
2023/09/16 01:02:10;;;;;;;3.80;2.27;;;17.70;59.70;;;;;;5117312;28;20416;-59
2023/09/16 01:04:39;;;;;;;5.10;2.33;;;17.70;60.20;;;;;;5117612;28;20415;-60
2023/09/16 01:07:06;;;;;;;5.73;2.60;;;17.60;64.70;;;;;;5116794;28;20447;-60
2023/09/16 01:09:33;;;;;;;2.90;1.97;;;17.70;65.40;;;;;;5117410;28;20423;-59
2023/09/16 01:12:00;;;;;;;3.63;2.03;;;17.60;59.70;;;;;;5118203;28;20427;-59
2023/09/16 01:14:29;;;;;;;3.90;2.17;;;17.60;61.80;;;;;;5117811;28;20935;-59
2023/09/16 01:17:00;;;;;;;3.00;1.90;;;17.70;70.20;;;;;;5117113;28;20408;-59
2023/09/16 01:19:37;;;;;;;3.42;1.80;;;17.70;67.80;;;;;;5118604;28;20423;-58
2023/09/16 01:22:06;;;;;;;2.90;1.80;;;17.80;54.00;;;;;;5118967;28;20423;-59
2023/09/16 01:24:34;;;;;;;2.97;1.77;;;17.90;35.80;;;;;;5118537;28;20420;-59
2023/09/16 01:27:02;;;;;;;3.25;1.75;;;18.00;25.40;;;;;;5118650;28;20481;-59
2023/09/16 01:29:30;;;;;;;2.80;2.00;;;18.00;10.40;;;;;;5115811;28;20492;-59
2023/09/16 01:32:04;;;;;;;2.67;1.92;;;18.10;3.20;;;;;;5117025;28;20808;-59
2023/09/16 01:34:39;;;;;;;3.33;1.90;;;18.00;1.00;;;;;;5117331;28;20431;-59
2023/09/16 01:37:09;;;;;;;2.83;1.90;;;17.90;1.00;;;;;;5118114;28;20481;-59
2023/09/16 01:39:38;;;;;;;3.40;2.00;;;17.90;1.00;;;;;;5117631;28;20761;-58
2023/09/16 01:42:07;;;;;;;3.40;1.70;;;17.90;1.00;;;;;;5117335;28;20431;-59
2023/09/16 01:44:34;;;;;;;2.88;1.55;;;17.90;1.00;;;;;;5118169;28;20424;-59
2023/09/16 01:47:02;;;;;;;3.28;1.63;;;17.90;1.00;;;;;;5117821;28;20723;-58
2023/09/16 01:49:29;;;;;;;2.88;1.40;;;17.90;1.00;;;;;;5117824;28;20412;-60
2023/09/16 01:51:56;;;;;;;3.10;1.40;;;17.90;1.00;;;;;;5118393;28;20446;-60
2023/09/16 01:54:23;;;;;;;3.33;1.98;;;17.90;1.00;;;;;;5117926;28;20424;-57
2023/09/16 01:56:50;;;;;;;2.17;1.73;;;17.90;1.00;;;;;;5117654;28;20805;-59
2023/09/16 01:59:18;;;;;;;2.67;1.52;;;17.90;1.00;;;;;;5116594;28;20420;-60
2023/09/16 02:01:46;;;;;;;3.22;1.80;;;17.90;1.00;;;;;;5117627;28;20416;-59
2023/09/16 02:04:13;;;;;;;2.40;1.60;;;17.90;1.00;;;;;;5117970;28;20862;-59
2023/09/16 02:06:41;;;;;;;2.58;1.30;;;17.90;1.00;;;;;;5118336;28;20455;-60
2023/09/16 02:09:08;;;;;;;2.42;1.75;;;17.90;1.00;;;;;;5116974;28;20759;-59
2023/09/16 02:11:36;;;;;;;4.53;2.30;;;17.90;1.00;;;;;;5116451;28;20420;-58
2023/09/16 02:14:04;;;;;;;2.45;1.60;;;17.90;1.00;;;;;;5113829;28;20420;-57
2023/09/16 02:16:33;;;;;;;3.10;1.70;;;17.80;1.00;;;;;;5110962;28;20874;-57
2023/09/16 02:19:00;;;;;;;3.60;1.70;;;17.70;1.00;;;;;;5117391;28;20430;-57
2023/09/16 02:21:27;;;;;;;2.83;2.10;;;17.70;1.30;;;;;;5116251;28;20482;-58
2023/09/16 02:23:55;;;;;;;3.28;1.83;;;17.70;6.70;;;;;;5108106;28;20426;-59
2023/09/16 02:26:22;;;;;;;4.28;2.40;;;17.70;17.10;;;;;;5116801;28;20420;-58
2023/09/16 02:28:49;;;;;;;4.53;3.60;;;17.70;25.40;;;;;;5116478;28;20950;-58
2023/09/16 02:31:16;;;;;;;4.30;3.38;;;17.60;48.60;;;;;;5107076;28;20402;-59
2023/09/16 02:33:45;;;;;;;3.97;2.60;;;17.50;67.50;;;;;;5115590;28;20431;-60
2023/09/16 02:36:12;;;;;;;5.40;2.90;;;17.40;91.90;;;;;;5116165;28;20432;-59
2023/09/16 02:38:39;;;;;;;3.97;2.80;;;17.40;95.70;;;;;;5115722;28;20426;-59
2023/09/16 02:41:06;;;;;;;3.47;2.70;;;17.40;96.10;;;;;;5116130;28;20412;-59
2023/09/16 02:43:33;;;;;;;5.68;2.95;;;17.40;91.70;;;;;;5116594;28;20423;-58
2023/09/16 02:46:00;;;;;;;5.57;2.85;;;17.40;93.60;;;;;;5117123;28;20427;-58
2023/09/16 02:48:27;;;;;;;3.97;2.58;;;17.40;95.50;;;;;;5116626;28;20877;-59
2023/09/16 02:50:56;;;;;;;6.13;2.70;;;17.40;95.70;;;;;;5116785;28;20424;-58
2023/09/16 02:53:23;;;;;;;3.50;2.50;;;17.40;99.20;;;;;;5116768;28;20420;-58
2023/09/16 02:55:50;;;;;;;4.18;2.00;;;17.40;92.60;;;;;;5116201;28;20430;-60
2023/09/16 02:58:17;;;;;;;3.67;2.35;;;17.50;75.70;;;;;;5116437;28;20483;-58
2023/09/16 03:00:47;;;;;;;3.15;2.10;;;17.50;67.00;;;;;;5116531;28;20425;-60
2023/09/16 03:03:14;;;;;;;2.63;1.92;;;17.50;61.90;;;;;;5116845;28;20448;-59
2023/09/16 03:05:45;;;;;;;2.88;1.50;;;17.60;54.40;;;;;;5117362;28;20811;-59
2023/09/16 03:08:13;;;;;;;2.92;1.85;;;17.50;51.30;;;;;;5116252;28;20424;-58
2023/09/16 03:10:40;;;;;;;3.60;2.22;;;17.50;52.10;;;;;;5114590;28;20412;-58
2023/09/16 03:13:07;;;;;;;2.40;1.70;;;17.60;51.60;;;;;;5115177;28;20427;-58
2023/09/16 03:15:37;;;;;;;3.20;2.40;;;17.60;54.00;;;;;;5114150;28;20428;-58
2023/09/16 03:18:05;;;;;;;3.33;1.98;;;17.60;48.20;;;;;;5106083;28;20783;-59
2023/09/16 03:20:32;;;;;;;2.90;2.30;;;17.50;52.00;;;;;;5114366;28;20728;-59
2023/09/16 03:22:59;;;;;;;3.65;2.05;;;17.40;56.90;;;;;;5114603;28;20435;-59
2023/09/16 03:25:28;;;;;;;3.20;2.20;;;17.30;59.00;;;;;;5115490;28;20541;-60
2023/09/16 03:27:55;;;;;;;3.70;2.38;;;17.10;84.80;;;;;;5115426;28;20423;-59
2023/09/16 03:30:22;;;;;;;4.43;2.78;;;17.00;93.50;;;;;;5115268;28;20896;-60
2023/09/16 03:32:49;;;;;;;3.30;2.42;;;17.00;99.10;;;;;;5115675;28;20460;-60
2023/09/16 03:35:16;;;;;;;3.55;1.90;;;17.10;99.90;;;;;;5115316;28;20845;-60
2023/09/16 03:37:43;;;;;;;2.97;1.95;;;17.30;90.30;;;;;;5115866;28;20738;-60
2023/09/16 03:40:11;;;;;;;4.38;2.20;;;17.40;61.00;;;;;;5115805;28;20519;-60
2023/09/16 03:42:39;;;;;;;3.80;2.17;;;17.40;46.30;;;;;;5114372;28;20735;-58
2023/09/16 03:45:07;;;;;;;3.63;2.10;;;17.40;44.60;;;;;;5113661;28;20420;-60
2023/09/16 03:47:34;;;;;;;4.57;2.20;;;17.40;43.20;;;;;;5114939;28;20428;-58
2023/09/16 03:50:01;;;;;;;3.70;1.98;;;17.40;41.50;;;;;;5113632;28;20842;-58
2023/09/16 03:52:29;;;;;;;4.80;2.70;;;17.40;46.20;;;;;;5113352;28;20443;-59
2023/09/16 03:54:56;;;;;;;4.10;2.10;;;17.40;47.60;;;;;;5113722;28;20412;-59
2023/09/16 03:57:23;;;;;;;3.35;1.95;;;17.30;49.50;;;;;;5112503;28;20436;-58
2023/09/16 03:59:51;;;;;;;3.70;2.00;;;17.30;59.70;;;;;;5113718;28;20503;-58
2023/09/16 04:02:18;;;;;;;3.90;2.50;;;17.20;67.30;;;;;;5112788;28;20494;-58
2023/09/16 04:04:46;;;;;;;3.05;1.80;;;17.20;59.40;;;;;;5113448;28;20830;-59
2023/09/16 04:07:13;;;;;;;3.75;2.53;;;17.20;63.70;;;;;;5113390;28;20420;-59
2023/09/16 04:09:40;;;;;;;3.53;2.20;;;17.30;72.10;;;;;;5113465;28;20726;-58
2023/09/16 04:12:08;;;;;;;3.08;2.03;;;17.30;67.50;;;;;;5115280;28;20451;-59
2023/09/16 04:14:35;;;;;;;2.42;1.70;;;17.30;58.70;;;;;;5115414;28;20459;-58
2023/09/16 04:17:04;;;;;;;4.67;2.30;;;17.30;55.80;;;;;;5113890;28;20420;-59
2023/09/16 04:19:31;;;;;;;5.60;2.20;;;17.30;58.30;;;;;;5115507;28;20444;-59
2023/09/16 04:21:58;;;;;;;4.70;2.08;;;17.30;67.30;;;;;;5114781;28;20423;-59
2023/09/16 04:24:25;;;;;;;4.25;2.72;;;17.30;63.00;;;;;;5115546;28;20416;-59
2023/09/16 04:26:52;;;;;;;3.63;2.40;;;17.30;53.30;;;;;;5115011;28;20805;-59
2023/09/16 04:29:19;;;;;;;3.42;2.20;;;17.20;58.30;;;;;;5115042;28;20412;-58
2023/09/16 04:31:47;;;;;;;3.00;1.92;;;17.10;77.00;;;;;;5115150;28;20447;-59
2023/09/16 04:34:16;;;;;;;2.40;1.73;;;17.10;90.20;;;;;;5112005;28;20792;-59
2023/09/16 04:36:43;;;;;;;3.38;2.38;;;17.00;90.10;;;;;;5111513;28;20432;-58
2023/09/16 04:39:10;;;;;;;3.78;2.10;;;17.00;89.80;;;;;;5111578;28;20576;-58
2023/09/16 04:41:37;;;;;;;3.80;1.88;;;17.00;90.50;;;;;;5112432;28;20428;-59
2023/09/16 04:44:08;;;;;;;4.57;2.28;;;17.00;88.60;;;;;;5112335;28;20503;-58
2023/09/16 04:46:35;;;;;;;3.78;2.70;;;17.00;93.30;;;;;;5113585;28;20893;-58
2023/09/16 04:49:02;;;;;;;3.20;2.33;;;17.10;95.70;;;;;;5114922;28;20455;-57
2023/09/16 04:51:31;;;;;;;4.15;2.38;;;17.00;85.00;;;;;;5114834;28;20420;-57
2023/09/16 04:53:58;;;;;;;2.70;1.73;;;17.00;84.10;;;;;;5114665;28;20535;-58
2023/09/16 04:56:25;;;;;;;3.20;2.13;;;17.10;91.70;;;;;;5115194;28;20727;-58
2023/09/16 04:58:53;;;;;;;3.05;1.88;;;17.10;76.30;;;;;;5114059;28;20421;-58
2023/09/16 05:01:20;;;;;;;3.90;2.50;;;17.00;72.40;;;;;;5107175;28;20419;-59
2023/09/16 05:03:47;;;;;;;3.57;2.40;;;17.00;80.00;;;;;;5114515;28;20492;-59
2023/09/16 05:06:15;;;;;;;3.88;2.20;;;16.90;91.90;;;;;;5115097;28;20442;-58
2023/09/16 05:08:43;;;;;;;4.45;2.33;;;16.90;97.30;;;;;;5107109;28;20429;-59
2023/09/16 05:11:10;;;;;;;4.13;2.20;;;16.90;98.70;;;;;;5112659;28;20820;-58
2023/09/16 05:13:38;;;;;;;3.50;2.50;;;16.80;99.90;;;;;;5112534;28;20426;-58
2023/09/16 05:16:05;;;;;;;3.83;2.30;;;16.80;99.90;;;;;;5113116;28;20874;-58
2023/09/16 05:18:32;;;;;;;3.75;2.35;;;16.80;99.90;;;;;;5112727;28;20711;-59
2023/09/16 05:20:59;;;;;;;3.20;2.55;;;16.80;99.90;;;;;;5113901;28;20427;-59
2023/09/16 05:23:26;;;;;;;3.40;2.30;;;16.70;99.90;;;;;;5113499;28;20726;-59
2023/09/16 05:25:55;;;;;;;4.13;2.50;;;16.70;99.90;;;;;;5113648;28;20412;-59
2023/09/16 05:28:22;;;;;;;4.83;2.70;;;16.70;99.90;;;;;;5114136;28;20408;-59
2023/09/16 05:30:49;;;;;;;6.00;3.17;;;16.70;99.90;;;;;;5114529;28;20416;-59
2023/09/16 05:33:17;;;;;;;4.72;2.60;;;16.70;99.90;;;;;;5114711;28;20416;-59
2023/09/16 05:35:44;;;;;;;5.28;2.38;;;16.80;99.90;;;;;;5116088;28;20420;-59
2023/09/16 05:38:11;;;;;;;4.65;2.78;;;16.80;99.90;;;;;;5112999;28;20871;-59
2023/09/16 05:40:38;;;;;;;3.47;1.90;;;16.80;99.90;;;;;;5104711;28;20432;-59
2023/09/16 05:43:07;;;;;;;4.00;2.50;;;16.90;99.90;;;;;;5114833;28;20735;-59
2023/09/16 05:45:36;;;;;;;5.88;2.90;;;16.90;99.90;;;;;;5117148;28;20609;-59
2023/09/16 05:48:07;;;;;;;3.83;2.47;;;16.90;99.90;;;;;;5102705;28;20446;-60
2023/09/16 05:50:34;;;;;;;4.65;2.80;;;16.90;99.90;;;;;;5101342;28;20513;-58
2023/09/16 05:53:04;;;;;;;5.63;3.67;;;16.90;99.90;;;;;;5111807;28;20420;-58
2023/09/16 05:55:33;;;;;;;6.28;3.85;;;16.90;99.90;;;;;;5111180;28;20409;-58
2023/09/16 05:58:00;;;;;;;6.80;3.38;;;16.90;99.90;;;;;;5100923;28;20752;-57
2023/09/16 06:00:29;;;;;;;5.10;3.60;;;16.90;99.90;;;;;;5114904;28;20428;-58
2023/09/16 06:02:56;;;;;;;5.68;3.80;;;17.00;99.90;;;;;;5105751;28;20428;-57
2023/09/16 06:05:23;;;;;;;4.60;3.17;;;17.00;99.90;;;;;;5098204;28;20430;-57
2023/09/16 06:07:50;;;;;;;7.15;4.60;;;17.00;99.90;;;;;;5110060;27;20413;-54
2023/09/16 06:10:17;;;;;;;5.73;3.63;;;17.10;99.90;;;;;;5114522;28;20408;-58
2023/09/16 06:12:46;;;;;;;5.60;4.10;;;17.10;99.90;;;;;;5106235;28;20431;-57
2023/09/16 06:15:13;;;;;;;7.50;3.95;;;17.20;99.90;;;;;;5105144;28;20425;-57
2023/09/16 06:17:42;;;;;;;6.40;4.30;;;17.30;99.90;;;;;;5101329;28;20430;-58
2023/09/16 06:20:10;;;;;;;7.20;4.27;;;17.30;99.90;;;;;;5096350;28;20868;-57
2023/09/16 06:22:37;;;;;;;6.70;3.60;;;17.20;99.90;;;;;;5110850;28;20729;-57
2023/09/16 06:25:05;;;;;;;5.77;4.20;;;17.30;99.90;;;;;;5103203;28;20426;-57
2023/09/16 06:27:32;;;;;;;4.47;3.00;;;17.40;99.90;;;;;;5103053;28;20417;-55
2023/09/16 06:29:59;;;;;;;3.78;2.60;;;17.40;99.90;;;;;;5112132;28;20424;-55
2023/09/16 06:32:26;;;;;;;4.70;3.33;;;17.40;99.90;;;;;;5099545;28;20426;-56
2023/09/16 06:34:54;;;;;;;5.40;4.07;;;17.50;99.90;;;;;;5109588;28;20438;-55
2023/09/16 06:37:22;;;;;;;5.60;3.40;;;17.50;99.90;;;;;;5114859;27;20427;-56
2023/09/16 06:39:49;;;;;;;6.13;3.75;;;17.50;99.90;;;;;;5114706;28;20723;-56
2023/09/16 06:42:16;;;;;;;6.35;3.40;;;17.50;99.90;;;;;;5098898;28;20504;-55
2023/09/16 06:44:43;;;;;;;7.60;3.60;;;17.60;99.90;;;;;;5109829;28;20446;-56
2023/09/16 06:47:10;;;;;;;5.07;3.40;;;17.70;99.90;;;;;;5099719;28;20722;-55
2023/09/16 06:49:38;;;;;;;8.40;4.28;;;17.70;99.90;;;;;;5097407;28;20421;-57
2023/09/16 06:52:06;;;;;;;8.15;4.35;;;17.80;99.90;;;;;;5111568;28;20451;-56
2023/09/16 06:54:33;;;;;;;6.18;3.92;;;17.90;99.90;;;;;;5098571;28;20424;-56
2023/09/16 06:57:02;;;;;;;5.78;3.47;;;17.90;99.90;;;;;;5108162;28;20429;-57
2023/09/16 06:59:30;;;;;;;6.82;3.80;;;18.00;99.90;;;;;;5104025;28;20434;-56
2023/09/16 07:01:57;;;;;;;5.70;4.13;;;18.10;98.20;;;;;;5098033;28;20411;-58
2023/09/16 07:04:26;;;;;;;7.63;4.63;;;18.10;96.60;;;;;;5111794;28;20416;-56
2023/09/16 07:06:53;;;;;;;7.53;4.50;;;18.20;95.60;;;;;;5101966;28;20507;-57
2023/09/16 07:09:22;;;;;;;5.43;3.88;;;18.30;90.30;;;;;;5104053;28;20421;-55
2023/09/16 07:11:49;;;;;;;4.75;3.63;;;18.30;89.00;;;;;;5108673;28;20798;-57
2023/09/16 07:14:17;;;;;;;6.38;3.45;;;18.50;79.20;;;;;;5098216;28;20737;-56
2023/09/16 07:16:44;;;;;;;5.57;3.30;;;18.60;56.90;;;;;;5110333;28;20729;-53
2023/09/16 07:19:11;;;;;;;8.10;3.78;;;18.70;52.00;;;;;;5103960;28;20735;-57
2023/09/16 07:21:38;;;;;;;6.43;3.90;;;18.80;37.60;;;;;;5114255;28;20424;-59
2023/09/16 07:24:06;;;;;;;5.90;3.47;;;18.90;34.50;;;;;;5109405;28;20419;-55
2023/09/16 07:26:35;;;;;;;6.25;3.72;;;19.00;29.00;;;;;;5092758;28;20767;-55
2023/09/16 07:29:03;;;;;;;5.13;3.88;;;19.10;28.20;;;;;;5109463;28;20856;-56
2023/09/16 07:31:30;;;;;;;5.53;4.00;;;19.10;18.20;;;;;;5108699;28;20416;-56
2023/09/16 07:33:57;;;;;;;5.75;4.57;;;19.40;1.00;;;;;;5099348;28;20426;-57
2023/09/16 07:36:25;;;;;;;4.47;2.90;;;19.40;1.00;;;;;;5112502;28;20830;-57
2023/09/16 07:38:52;;;;;;;4.13;3.40;;;19.60;1.00;;;;;;5107704;28;20428;-57
2023/09/16 07:41:19;;;;;;;5.00;3.50;;;19.60;1.00;;;;;;5104440;28;20432;-55
2023/09/16 07:43:48;;;;;;;5.95;3.40;;;19.80;1.00;;;;;;5097898;28;20424;-57
2023/09/16 07:46:15;;;;;;;5.53;3.20;;;19.90;99.90;;;;;;5110173;28;21069;-57
2023/09/16 07:48:42;;;;;;;4.90;3.50;;;20.00;99.90;;;;;;5097546;28;20696;-57
2023/09/16 07:51:09;;;;;;;4.00;3.15;;;19.90;99.90;;;;;;5104939;28;20422;-56
2023/09/16 07:53:36;;;;;;;4.90;2.83;;;20.00;1.00;;;;;;5107039;28;20435;-57
2023/09/16 07:56:04;;;;;;;4.60;2.90;;;20.10;1.00;;;;;;5103148;28;20496;-57
2023/09/16 07:58:31;;;;;;;5.10;3.60;;;20.30;99.90;;;;;;5105406;28;20515;-57
2023/09/16 08:00:59;;;;;;;4.32;2.90;;;20.50;99.90;;;;;;5114231;28;20431;-57
2023/09/16 08:03:27;;;;;;;3.65;2.80;;;20.60;99.90;;;;;;5108343;28;20486;-56
2023/09/16 08:05:54;;;;;;;4.00;2.72;;;20.60;99.90;;;;;;5098545;28;20446;-56
2023/09/16 08:08:21;;;;;;;5.22;3.47;;;20.50;99.90;;;;;;5105373;27;20432;-56
2023/09/16 08:10:50;;;;;;;5.70;3.60;;;20.60;99.90;;;;;;5098148;28;20564;-56
2023/09/16 08:13:18;;;;;;;3.58;2.00;;;20.50;99.90;;;;;;5096019;28;21232;-56
2023/09/16 08:15:45;;;;;;;5.03;2.75;;;20.60;99.90;;;;;;5097004;28;20443;-57
2023/09/16 08:18:14;;;;;;;4.95;3.10;;;20.70;99.90;;;;;;5100966;28;20439;-56
2023/09/16 08:20:41;;;;;;;4.10;2.50;;;20.80;99.90;;;;;;5102741;28;20435;-57
2023/09/16 08:23:09;;;;;;;3.85;2.53;;;20.80;99.90;;;;;;5105007;28;20500;-57
2023/09/16 08:25:36;;;;;;;5.10;2.65;;;21.00;99.90;;;;;;5113913;28;20428;-57
2023/09/16 08:28:04;;;;;;;4.05;2.80;;;21.10;99.90;;;;;;5113698;28;20420;-57
2023/09/16 08:30:34;;;;;;;3.35;2.28;;;21.20;99.90;;;;;;5113947;28;20501;-58
2023/09/16 08:33:01;;;;;;;2.70;1.80;;;21.30;99.90;;;;;;5114484;28;20907;-57
2023/09/16 08:35:30;;;;;;;2.85;1.83;;;21.40;99.90;;;;;;5112620;28;20416;-58
2023/09/16 08:38:00;;;;;;;4.50;2.30;;;21.60;99.90;;;;;;5112634;28;20430;-60
2023/09/16 08:40:29;;;;;;;3.75;1.83;;;21.80;99.90;;;;;;5113432;28;20747;-56
2023/09/16 08:43:09;;;;;;;4.23;1.63;;;21.90;99.90;;;;;;5113934;28;20432;-56
2023/09/16 08:45:43;;;;;;;2.00;1.58;;;22.10;99.90;;;;;;5113617;28;20423;-58
2023/09/16 08:48:15;;;;;;;2.72;1.75;;;22.30;99.90;;;;;;5113620;28;20426;-57
2023/09/16 08:50:44;;;;;;;2.70;2.00;;;22.40;99.90;;;;;;5111395;28;20843;-57
2023/09/16 08:53:13;;;;;;;2.75;1.70;;;22.30;99.90;;;;;;5112377;28;20424;-58
2023/09/16 08:55:40;;;;;;;2.30;1.60;;;22.30;99.90;;;;;;5110967;28;20739;-58
2023/09/16 08:58:09;;;;;;;2.60;2.10;;;22.40;99.90;;;;;;5094271;28;20771;-60
2023/09/16 09:00:37;;;;;;;2.40;1.70;;;22.40;99.90;;;;;;5107140;28;20426;-60
2023/09/16 09:03:05;;;;;;;2.95;1.70;;;22.50;99.90;;;;;;5098239;28;20511;-60
2023/09/16 09:05:35;;;;;;;2.60;1.58;;;22.60;99.90;;;;;;5111540;28;20424;-61
2023/09/16 09:08:05;;;;;;;2.40;1.60;;;22.60;99.90;;;;;;5112889;28;20441;-61
2023/09/16 09:10:32;;;;;;;2.20;1.60;;;22.70;99.90;;;;;;5097842;28;20539;-60
2023/09/16 09:13:00;;;;;;;2.45;1.65;;;22.80;99.90;;;;;;5109402;28;20432;-61
2023/09/16 09:15:29;;;;;;;2.60;1.70;;;22.90;99.90;;;;;;5104266;28;20425;-61
2023/09/16 09:17:57;;;;;;;2.10;1.50;;;22.90;99.90;;;;;;5098515;28;20525;-62
2023/09/16 09:20:27;;;;;;;2.20;1.60;;;23.10;99.90;;;;;;5111245;28;20427;-62
2023/09/16 09:22:55;;;;;;;1.70;1.17;;;23.30;99.90;;;;;;5115313;28;20416;-62
2023/09/16 09:25:25;;;;;;;2.80;1.30;;;23.30;99.90;;;;;;5111251;28;20829;-61
2023/09/16 09:27:54;;;;;;;2.70;1.40;;;23.40;99.90;;;;;;5102619;28;20461;-62
2023/09/16 09:30:26;;;;;;;2.03;1.40;;;23.40;99.90;;;;;;5115601;28;20416;-62
2023/09/16 09:32:55;;;;;;;2.28;1.45;;;23.60;99.90;;;;;;5111013;28;20429;-61
2023/09/16 09:35:23;;;;;;;2.60;1.35;;;23.80;99.90;;;;;;5105880;28;20536;-61
2023/09/16 09:37:50;;;;;;;2.00;1.20;;;23.80;99.90;;;;;;5104717;28;20446;-61
2023/09/16 09:40:18;;;;;;;2.20;1.10;;;24.00;99.90;;;;;;5117404;27;20407;-61
2023/09/16 09:42:49;;;;;;;1.65;1.50;;;24.10;99.90;;;;;;5099195;28;20494;-63
2023/09/16 09:45:18;;;;;;;2.25;1.30;;;24.20;99.90;;;;;;5106209;28;20425;-61
2023/09/16 09:47:47;;;;;;;2.28;1.90;;;24.40;99.90;;;;;;5109436;28;20518;-61
2023/09/16 09:50:15;;;;;;;2.00;1.30;;;24.50;99.90;;;;;;5108811;28;20420;-61
2023/09/16 09:52:47;;;;;;;2.17;1.23;;;24.60;99.90;;;;;;5110626;28;20586;-63
2023/09/16 09:55:16;;;;;;;3.53;2.35;;;24.50;99.90;;;;;;5099315;28;20816;-62
2023/09/16 09:57:46;;;;;;;2.22;1.20;;;24.50;99.90;;;;;;5110284;28;20437;-62
2023/09/16 10:00:16;;;;;;;2.20;1.30;;;24.70;99.90;;;;;;5106578;28;20432;-62
2023/09/16 10:02:44;;;;;;;2.50;1.30;;;25.00;99.90;;;;;;5105071;27;20432;-62
2023/09/16 10:05:15;;;;;;;2.00;1.40;;;25.20;99.90;;;;;;5112029;28;20523;-63
2023/09/16 10:07:43;;;;;;;2.45;1.20;;;25.40;99.90;;;;;;5115076;28;20413;-63
2023/09/16 10:10:15;;;;;;;2.20;1.10;;;25.50;99.90;;;;;;5107273;28;20888;-63
2023/09/16 10:12:44;;;;;;;1.70;1.20;;;25.70;99.90;;;;;;5101057;28;20437;-63
2023/09/16 10:15:13;;;;;;;2.00;1.10;;;25.90;99.90;;;;;;5095555;28;20421;-62
2023/09/16 10:17:41;;;;;;;2.00;1.00;;;26.20;99.90;;;;;;5113830;28;20428;-63
2023/09/16 10:20:10;;;;;;;1.90;1.00;;;26.30;99.90;;;;;;5105907;28;20432;-62
2023/09/16 10:22:38;;;;;;;1.50;1.10;;;26.50;99.90;;;;;;5108480;28;20451;-62
2023/09/16 10:25:06;;;;;;;1.60;1.10;;;26.70;99.90;;;;;;5110420;28;20770;-63
2023/09/16 10:27:41;;;;;;;1.80;1.10;;;26.80;99.90;;;;;;5102126;28;20447;-63
2023/09/16 10:30:09;;;;;;;1.40;1.10;;;26.90;99.90;;;;;;5112388;28;20428;-63
2023/09/16 10:32:38;;;;;;;1.70;1.00;;;27.20;99.90;;;;;;5112025;28;20424;-63
2023/09/16 10:35:08;;;;;;;1.40;0.90;;;27.30;99.90;;;;;;5113982;28;20440;-64
2023/09/16 10:37:39;;;;;;;1.60;0.90;;;27.40;99.90;;;;;;5109037;28;20721;-62
2023/09/16 10:40:08;;;;;;;1.60;1.00;;;27.60;99.90;;;;;;5113694;28;20432;-65
2023/09/16 10:42:37;;;;;;;1.30;0.90;;;27.60;99.90;;;;;;5109670;27;20517;-64
2023/09/16 10:45:10;;;;;;;1.80;0.90;;;27.50;99.90;;;;;;5098438;28;20424;-64
2023/09/16 10:47:39;;;;;;;1.40;0.90;;;27.70;99.90;;;;;;5104594;28;20516;-63
2023/09/16 10:50:07;;;;;;;1.10;0.80;;;27.90;99.90;;;;;;5114688;28;20520;-63
2023/09/16 10:52:41;;;;;;;1.80;0.90;;;28.00;99.90;;;;;;5114520;28;20426;-62
2023/09/16 10:55:13;;;;;;;1.20;0.90;;;28.20;99.90;;;;;;5108989;28;20851;-62
2023/09/16 10:57:48;;;;;;;1.20;0.90;;;28.30;99.90;;;;;;5114411;28;20779;-62
2023/09/16 11:00:21;;;;;;;1.42;0.88;;;28.40;99.90;;;;;;5096736;28;20432;-62
2023/09/16 11:02:57;;;;;;;1.20;0.90;;;28.50;99.90;;;;;;5112181;28;20870;-62
2023/09/16 11:05:26;;;;;;;1.23;0.88;;;28.60;99.90;;;;;;5103567;28;20449;-62
2023/09/16 11:07:54;;;;;;;1.15;0.90;;;28.60;99.90;;;;;;5094726;28;21158;-63
2023/09/16 11:10:22;;;;;;;1.00;0.70;;;28.80;99.90;;;;;;5092049;28;20454;-63
2023/09/16 11:12:50;;;;;;;1.10;0.80;;;28.80;99.90;;;;;;5114158;28;20747;-63
2023/09/16 11:15:17;;;;;;;0.95;0.70;;;28.80;99.90;;;;;;5115871;28;20420;-62
2023/09/16 11:17:44;;;;;;;1.50;0.70;;;29.00;99.90;;;;;;5108896;28;20925;-62
2023/09/16 11:20:19;;;;;;;0.80;0.60;;;29.20;99.90;;;;;;5116371;28;20722;-62
2023/09/16 11:22:47;;;;;;;1.50;0.80;;;29.30;99.90;;;;;;5116259;28;20412;-64
2023/09/16 11:25:16;;;;;;;1.00;0.70;;;28.80;99.90;;;;;;5111632;28;20439;-64
2023/09/16 11:27:44;;;;;;;1.20;0.60;;;28.90;99.90;;;;;;5115875;28;20423;-63
2023/09/16 11:30:13;;;;;;;1.00;0.70;;;29.00;99.90;;;;;;5109187;28;20821;-63
2023/09/16 11:32:41;;;;;;;1.10;0.70;;;28.90;99.90;;;;;;5095741;28;20581;-63
2023/09/16 11:35:10;;;;;;;0.90;0.70;;;28.70;99.90;;;;;;5100241;28;20436;-66
2023/09/16 11:37:38;;;;;;;0.88;0.70;;;28.90;99.90;;;;;;5104419;28;20420;-64
2023/09/16 11:40:11;;;;;;;1.10;0.60;;;28.80;99.90;;;;;;5115333;28;20428;-64
2023/09/16 11:42:39;;;;;;;1.00;0.70;;;28.90;99.90;;;;;;5116930;28;20425;-64
2023/09/16 11:45:07;;;;;;;1.00;0.80;;;29.10;99.90;;;;;;5105792;28;20434;-64
2023/09/16 11:47:35;;;;;;;0.88;0.70;;;28.90;99.90;;;;;;5105596;28;20547;-64
2023/09/16 11:50:02;;;;;;;1.10;0.70;;;29.00;99.90;;;;;;5104044;28;20433;-64
2023/09/16 11:52:30;;;;;;;1.00;0.70;;;28.80;99.90;;;;;;5101959;28;20451;-64
2023/09/16 11:54:59;;;;;;;0.70;0.55;;;29.10;99.90;;;;;;5115527;28;20889;-64
2023/09/16 11:57:26;;;;;;;1.05;0.60;;;29.10;99.90;;;;;;5113778;28;20459;-65
2023/09/16 11:59:54;;;;;;;0.80;0.60;;;29.10;99.90;;;;;;5110397;28;20434;-64
2023/09/16 12:02:23;;;;;;;0.90;0.60;;;28.90;99.90;;;;;;5097057;28;20522;-64
2023/09/16 12:04:51;;;;;;;1.30;0.90;;;29.00;99.90;;;;;;5108726;28;20875;-64
2023/09/16 12:07:18;;;;;;;0.70;0.50;;;29.30;99.70;;;;;;5095328;28;20505;-65
2023/09/16 12:09:47;;;;;;;0.73;0.50;;;29.40;96.40;;;;;;5094783;28;20503;-65
2023/09/16 12:12:17;;;;;;;0.80;0.50;;;29.40;96.80;;;;;;5103786;28;20440;-65
2023/09/16 12:14:44;;;;;;;0.80;0.60;;;29.40;95.50;;;;;;5115409;28;20421;-65
2023/09/16 12:17:12;;;;;;;0.80;0.60;;;29.50;96.00;;;;;;5105842;28;20693;-64
2023/09/16 12:19:49;;;;;;;0.80;0.50;;;29.40;97.00;;;;;;5113522;28;20459;-65
2023/09/16 12:22:17;;;;;;;0.70;0.50;;;29.10;96.00;;;;;;5113822;28;20412;-65
2023/09/16 12:24:45;;;;;;;0.80;0.52;;;29.40;96.20;;;;;;5113879;28;20426;-65
2023/09/16 12:27:12;;;;;;;0.88;0.50;;;29.30;96.70;;;;;;5112465;28;20754;-65
2023/09/16 12:29:41;;;;;;;0.70;0.50;;;29.60;94.70;;;;;;5114818;28;20839;-66
2023/09/16 12:32:10;;;;;;;0.60;0.40;;;29.80;93.40;;;;;;5114156;28;20420;-64
2023/09/16 12:34:37;;;;;;;1.00;0.50;;;29.80;91.80;;;;;;5114719;28;20412;-65
2023/09/16 12:37:05;;;;;;;1.15;0.50;;;29.50;93.20;;;;;;5115051;28;20426;-63
2023/09/16 12:39:34;;;;;;;0.70;0.50;;;29.40;94.30;;;;;;5114491;28;20435;-65
2023/09/16 12:42:02;;;;;;;1.27;0.55;;;29.20;92.60;;;;;;5114830;28;20539;-65
2023/09/16 12:44:31;;;;;;;0.70;0.50;;;29.10;93.00;;;;;;5118413;28;20439;-64
2023/09/16 12:47:00;;;;;;;0.90;0.50;;;29.20;93.10;;;;;;5118749;28;20412;-64
2023/09/16 12:49:28;;;;;;;0.70;0.50;;;29.30;93.40;;;;;;5118856;28;20503;-63
2023/09/16 12:51:56;;;;;;;0.80;0.50;;;29.50;93.10;;;;;;5119012;28;20423;-64